sensor_id;sensor_type;location;lat;lon;timestamp;P1;durP1;ratioP1;P2;durP2;ratioP2
42134;SDS011;28312;43.460;11.810;2022-09-09T00:00:11;0.40;;;0.32;;
42134;SDS011;28312;43.460;11.810;2022-09-09T00:04:20;0.63;;;0.40;;
42134;SDS011;28312;43.460;11.810;2022-09-09T00:08:29;0.68;;;0.30;;
42134;SDS011;28312;43.460;11.810;2022-09-09T00:12:39;1.85;;;0.77;;
42134;SDS011;28312;43.460;11.810;2022-09-09T00:16:44;1.20;;;0.80;;
42134;SDS011;28312;43.460;11.810;2022-09-09T00:25:46;1.00;;;0.43;;
42134;SDS011;28312;43.460;11.810;2022-09-09T00:33:33;1.02;;;0.52;;
42134;SDS011;28312;43.460;11.810;2022-09-09T00:37:38;0.50;;;0.32;;
42134;SDS011;28312;43.460;11.810;2022-09-09T00:49:59;0.47;;;0.35;;
42134;SDS011;28312;43.460;11.810;2022-09-09T00:54:12;3.58;;;0.68;;
42134;SDS011;28312;43.460;11.810;2022-09-09T00:58:20;0.50;;;0.40;;
42134;SDS011;28312;43.460;11.810;2022-09-09T01:02:27;1.13;;;0.57;;
42134;SDS011;28312;43.460;11.810;2022-09-09T01:06:33;1.13;;;0.63;;
42134;SDS011;28312;43.460;11.810;2022-09-09T01:10:41;2.92;;;0.50;;
42134;SDS011;28312;43.460;11.810;2022-09-09T01:14:50;0.88;;;0.60;;
42134;SDS011;28312;43.460;11.810;2022-09-09T01:18:56;0.90;;;0.50;;
42134;SDS011;28312;43.460;11.810;2022-09-09T01:23:30;0.98;;;0.45;;
42134;SDS011;28312;43.460;11.810;2022-09-09T01:28:02;2.05;;;0.40;;
42134;SDS011;28312;43.460;11.810;2022-09-09T01:36:35;0.80;;;0.50;;
42134;SDS011;28312;43.460;11.810;2022-09-09T01:40:41;2.70;;;0.73;;
42134;SDS011;28312;43.460;11.810;2022-09-09T01:44:45;0.73;;;0.43;;
42134;SDS011;28312;43.460;11.810;2022-09-09T01:48:52;0.80;;;0.40;;
42134;SDS011;28312;43.460;11.810;2022-09-09T01:52:58;0.80;;;0.50;;
42134;SDS011;28312;43.460;11.810;2022-09-09T02:05:40;0.80;;;0.57;;
42134;SDS011;28312;43.460;11.810;2022-09-09T02:10:17;1.05;;;0.47;;
42134;SDS011;28312;43.460;11.810;2022-09-09T02:14:29;4.88;;;0.68;;
42134;SDS011;28312;43.460;11.810;2022-09-09T02:22:46;1.00;;;0.60;;
42134;SDS011;28312;43.460;11.810;2022-09-09T02:26:54;1.10;;;0.60;;
42134;SDS011;28312;43.460;11.810;2022-09-09T02:30:59;1.27;;;0.50;;
42134;SDS011;28312;43.460;11.810;2022-09-09T02:35:13;0.82;;;0.50;;
42134;SDS011;28312;43.460;11.810;2022-09-09T02:39:18;0.82;;;0.50;;
42134;SDS011;28312;43.460;11.810;2022-09-09T02:43:22;1.17;;;0.50;;
42134;SDS011;28312;43.460;11.810;2022-09-09T02:47:29;3.42;;;0.68;;
42134;SDS011;28312;43.460;11.810;2022-09-09T02:56:00;1.73;;;0.75;;
42134;SDS011;28312;43.460;11.810;2022-09-09T03:00:11;0.75;;;0.40;;
42134;SDS011;28312;43.460;11.810;2022-09-09T03:04:16;0.65;;;0.35;;
42134;SDS011;28312;43.460;11.810;2022-09-09T03:08:20;0.50;;;0.47;;
42134;SDS011;28312;43.460;11.810;2022-09-09T03:12:23;2.33;;;0.50;;
42134;SDS011;28312;43.460;11.810;2022-09-09T03:16:50;1.20;;;0.70;;
42134;SDS011;28312;43.460;11.810;2022-09-09T03:20:58;2.67;;;1.45;;
42134;SDS011;28312;43.460;11.810;2022-09-09T03:25:04;1.30;;;0.70;;
42134;SDS011;28312;43.460;11.810;2022-09-09T03:29:10;0.90;;;0.60;;
42134;SDS011;28312;43.460;11.810;2022-09-09T03:33:16;1.73;;;0.70;;
42134;SDS011;28312;43.460;11.810;2022-09-09T03:37:21;7.30;;;1.27;;
42134;SDS011;28312;43.460;11.810;2022-09-09T03:41:26;2.50;;;0.65;;
42134;SDS011;28312;43.460;11.810;2022-09-09T03:45:31;0.68;;;0.60;;
42134;SDS011;28312;43.460;11.810;2022-09-09T03:49:35;2.35;;;0.70;;
42134;SDS011;28312;43.460;11.810;2022-09-09T03:53:39;1.85;;;0.95;;
42134;SDS011;28312;43.460;11.810;2022-09-09T03:57:44;2.50;;;1.02;;
42134;SDS011;28312;43.460;11.810;2022-09-09T04:01:49;1.27;;;0.70;;
42134;SDS011;28312;43.460;11.810;2022-09-09T04:05:54;3.05;;;0.70;;
42134;SDS011;28312;43.460;11.810;2022-09-09T04:14:04;1.00;;;0.50;;
42134;SDS011;28312;43.460;11.810;2022-09-09T04:18:09;1.35;;;0.63;;
42134;SDS011;28312;43.460;11.810;2022-09-09T04:22:18;2.70;;;1.33;;
42134;SDS011;28312;43.460;11.810;2022-09-09T04:26:22;0.90;;;0.43;;
42134;SDS011;28312;43.460;11.810;2022-09-09T04:30:25;1.20;;;0.73;;
42134;SDS011;28312;43.460;11.810;2022-09-09T04:34:30;1.50;;;0.38;;
42134;SDS011;28312;43.460;11.810;2022-09-09T04:38:34;1.42;;;0.80;;
42134;SDS011;28312;43.460;11.810;2022-09-09T04:42:38;0.85;;;0.60;;
42134;SDS011;28312;43.460;11.810;2022-09-09T04:46:49;3.95;;;0.88;;
42134;SDS011;28312;43.460;11.810;2022-09-09T04:50:56;0.95;;;0.60;;
42134;SDS011;28312;43.460;11.810;2022-09-09T04:55:03;0.85;;;0.65;;
42134;SDS011;28312;43.460;11.810;2022-09-09T04:59:07;0.90;;;0.55;;
42134;SDS011;28312;43.460;11.810;2022-09-09T05:03:17;0.55;;;0.47;;
42134;SDS011;28312;43.460;11.810;2022-09-09T05:07:22;1.70;;;0.85;;
42134;SDS011;28312;43.460;11.810;2022-09-09T05:11:26;1.95;;;1.10;;
42134;SDS011;28312;43.460;11.810;2022-09-09T05:15:35;2.90;;;1.40;;
42134;SDS011;28312;43.460;11.810;2022-09-09T05:19:40;3.92;;;2.88;;
42134;SDS011;28312;43.460;11.810;2022-09-09T05:23:44;5.32;;;2.15;;
42134;SDS011;28312;43.460;11.810;2022-09-09T05:28:14;3.97;;;2.20;;
42134;SDS011;28312;43.460;11.810;2022-09-09T05:32:18;5.60;;;2.55;;
42134;SDS011;28312;43.460;11.810;2022-09-09T05:36:23;5.75;;;3.00;;
42134;SDS011;28312;43.460;11.810;2022-09-09T05:40:30;4.40;;;2.53;;
42134;SDS011;28312;43.460;11.810;2022-09-09T05:44:34;4.88;;;1.80;;
42134;SDS011;28312;43.460;11.810;2022-09-09T05:48:39;8.55;;;1.70;;
42134;SDS011;28312;43.460;11.810;2022-09-09T05:52:43;4.13;;;1.88;;
42134;SDS011;28312;43.460;11.810;2022-09-09T05:56:47;3.13;;;1.63;;
42134;SDS011;28312;43.460;11.810;2022-09-09T06:00:59;2.10;;;1.15;;
42134;SDS011;28312;43.460;11.810;2022-09-09T06:05:09;2.70;;;1.42;;
42134;SDS011;28312;43.460;11.810;2022-09-09T06:09:13;7.15;;;2.47;;
42134;SDS011;28312;43.460;11.810;2022-09-09T06:13:19;3.20;;;1.33;;
42134;SDS011;28312;43.460;11.810;2022-09-09T06:17:22;1.52;;;1.20;;
42134;SDS011;28312;43.460;11.810;2022-09-09T06:21:31;2.13;;;1.30;;
42134;SDS011;28312;43.460;11.810;2022-09-09T06:25:43;2.17;;;1.40;;
42134;SDS011;28312;43.460;11.810;2022-09-09T06:29:48;2.10;;;1.52;;
42134;SDS011;28312;43.460;11.810;2022-09-09T06:33:52;2.35;;;1.45;;
42134;SDS011;28312;43.460;11.810;2022-09-09T06:37:59;3.10;;;1.40;;
42134;SDS011;28312;43.460;11.810;2022-09-09T06:42:02;3.10;;;1.80;;
42134;SDS011;28312;43.460;11.810;2022-09-09T06:46:26;3.42;;;1.63;;
42134;SDS011;28312;43.460;11.810;2022-09-09T06:50:32;6.97;;;2.65;;
42134;SDS011;28312;43.460;11.810;2022-09-09T06:54:39;2.67;;;1.80;;
42134;SDS011;28312;43.460;11.810;2022-09-09T07:02:55;3.60;;;2.13;;
42134;SDS011;28312;43.460;11.810;2022-09-09T07:06:58;3.08;;;1.30;;
42134;SDS011;28312;43.460;11.810;2022-09-09T07:11:04;1.67;;;1.05;;
42134;SDS011;28312;43.460;11.810;2022-09-09T07:15:16;4.47;;;2.58;;
42134;SDS011;28312;43.460;11.810;2022-09-09T07:19:21;2.57;;;1.50;;
42134;SDS011;28312;43.460;11.810;2022-09-09T07:23:28;6.55;;;2.47;;
42134;SDS011;28312;43.460;11.810;2022-09-09T07:27:38;7.28;;;2.80;;
42134;SDS011;28312;43.460;11.810;2022-09-09T07:31:44;8.00;;;2.47;;
42134;SDS011;28312;43.460;11.810;2022-09-09T07:35:52;5.53;;;2.03;;
42134;SDS011;28312;43.460;11.810;2022-09-09T07:39:57;4.10;;;3.20;;
42134;SDS011;28312;43.460;11.810;2022-09-09T07:44:05;5.97;;;2.40;;
42134;SDS011;28312;43.460;11.810;2022-09-09T07:48:10;6.00;;;3.25;;
42134;SDS011;28312;43.460;11.810;2022-09-09T07:52:14;5.90;;;2.90;;
42134;SDS011;28312;43.460;11.810;2022-09-09T07:56:27;4.97;;;2.70;;
42134;SDS011;28312;43.460;11.810;2022-09-09T08:00:31;5.53;;;2.92;;
42134;SDS011;28312;43.460;11.810;2022-09-09T08:04:36;5.60;;;2.60;;
42134;SDS011;28312;43.460;11.810;2022-09-09T08:08:40;3.58;;;2.20;;
42134;SDS011;28312;43.460;11.810;2022-09-09T08:12:45;5.70;;;2.08;;
42134;SDS011;28312;43.460;11.810;2022-09-09T08:17:09;3.88;;;1.90;;
42134;SDS011;28312;43.460;11.810;2022-09-09T08:21:14;8.80;;;2.30;;
42134;SDS011;28312;43.460;11.810;2022-09-09T08:25:20;3.75;;;1.83;;
42134;SDS011;28312;43.460;11.810;2022-09-09T08:29:27;4.50;;;1.98;;
42134;SDS011;28312;43.460;11.810;2022-09-09T08:33:32;3.45;;;1.20;;
42134;SDS011;28312;43.460;11.810;2022-09-09T08:37:36;5.35;;;2.33;;
42134;SDS011;28312;43.460;11.810;2022-09-09T08:45:50;5.07;;;2.10;;
42134;SDS011;28312;43.460;11.810;2022-09-09T08:50:37;3.03;;;1.55;;
42134;SDS011;28312;43.460;11.810;2022-09-09T08:54:56;5.40;;;1.92;;
42134;SDS011;28312;43.460;11.810;2022-09-09T08:59:03;4.50;;;1.13;;
42134;SDS011;28312;43.460;11.810;2022-09-09T09:07:32;3.20;;;1.23;;
42134;SDS011;28312;43.460;11.810;2022-09-09T09:11:46;5.18;;;1.50;;
42134;SDS011;28312;43.460;11.810;2022-09-09T09:15:53;6.05;;;1.40;;
42134;SDS011;28312;43.460;11.810;2022-09-09T09:19:57;1.60;;;1.10;;
42134;SDS011;28312;43.460;11.810;2022-09-09T09:32:16;4.50;;;1.20;;
42134;SDS011;28312;43.460;11.810;2022-09-09T09:36:23;4.32;;;1.45;;
42134;SDS011;28312;43.460;11.810;2022-09-09T09:40:27;2.55;;;0.98;;
42134;SDS011;28312;43.460;11.810;2022-09-09T09:44:31;1.27;;;0.60;;
42134;SDS011;28312;43.460;11.810;2022-09-09T09:48:42;1.85;;;0.70;;
42134;SDS011;28312;43.460;11.810;2022-09-09T09:52:53;3.17;;;0.63;;
42134;SDS011;28312;43.460;11.810;2022-09-09T09:57:08;1.85;;;0.50;;
42134;SDS011;28312;43.460;11.810;2022-09-09T10:01:27;4.68;;;0.60;;
42134;SDS011;28312;43.460;11.810;2022-09-09T10:05:35;2.20;;;0.45;;
42134;SDS011;28312;43.460;11.810;2022-09-09T10:09:45;0.88;;;0.60;;
42134;SDS011;28312;43.460;11.810;2022-09-09T10:14:00;1.73;;;0.63;;
42134;SDS011;28312;43.460;11.810;2022-09-09T10:22:32;2.33;;;0.50;;
42134;SDS011;28312;43.460;11.810;2022-09-09T10:39:04;1.33;;;0.63;;
42134;SDS011;28312;43.460;11.810;2022-09-09T10:55:51;3.33;;;0.47;;
42134;SDS011;28312;43.460;11.810;2022-09-09T10:59:59;1.55;;;0.63;;
42134;SDS011;28312;43.460;11.810;2022-09-09T11:04:13;1.58;;;0.95;;
42134;SDS011;28312;43.460;11.810;2022-09-09T11:08:21;1.67;;;0.60;;
42134;SDS011;28312;43.460;11.810;2022-09-09T11:17:12;1.67;;;0.70;;
42134;SDS011;28312;43.460;11.810;2022-09-09T11:20:59;0.63;;;0.40;;
42134;SDS011;28312;43.460;11.810;2022-09-09T11:25:08;3.03;;;0.65;;
42134;SDS011;28312;43.460;11.810;2022-09-09T11:41:53;1.67;;;0.50;;
42134;SDS011;28312;43.460;11.810;2022-09-09T11:45:58;1.30;;;0.55;;
42134;SDS011;28312;43.460;11.810;2022-09-09T11:54:27;1.33;;;0.40;;
42134;SDS011;28312;43.460;11.810;2022-09-09T11:58:34;1.42;;;0.55;;
42134;SDS011;28312;43.460;11.810;2022-09-09T12:02:58;1.40;;;0.65;;
42134;SDS011;28312;43.460;11.810;2022-09-09T12:07:25;2.33;;;0.70;;
42134;SDS011;28312;43.460;11.810;2022-09-09T12:11:27;0.73;;;0.40;;
42134;SDS011;28312;43.460;11.810;2022-09-09T12:15:35;1.80;;;0.30;;
42134;SDS011;28312;43.460;11.810;2022-09-09T12:20:03;2.75;;;0.73;;
42134;SDS011;28312;43.460;11.810;2022-09-09T12:24:11;1.08;;;0.47;;
42134;SDS011;28312;43.460;11.810;2022-09-09T12:28:17;1.27;;;0.40;;
42134;SDS011;28312;43.460;11.810;2022-09-09T12:32:24;0.88;;;0.50;;
42134;SDS011;28312;43.460;11.810;2022-09-09T12:40:33;1.50;;;0.65;;
42134;SDS011;28312;43.460;11.810;2022-09-09T12:44:50;1.85;;;0.70;;
42134;SDS011;28312;43.460;11.810;2022-09-09T12:48:54;3.40;;;0.43;;
42134;SDS011;28312;43.460;11.810;2022-09-09T12:52:59;1.10;;;0.40;;
42134;SDS011;28312;43.460;11.810;2022-09-09T12:57:04;0.95;;;0.43;;
42134;SDS011;28312;43.460;11.810;2022-09-09T13:01:17;0.60;;;0.30;;
42134;SDS011;28312;43.460;11.810;2022-09-09T13:05:24;3.65;;;0.55;;
42134;SDS011;28312;43.460;11.810;2022-09-09T13:09:31;0.98;;;0.40;;
42134;SDS011;28312;43.460;11.810;2022-09-09T13:13:39;1.33;;;0.40;;
42134;SDS011;28312;43.460;11.810;2022-09-09T13:17:48;2.65;;;0.77;;
42134;SDS011;28312;43.460;11.810;2022-09-09T13:21:52;0.70;;;0.30;;
42134;SDS011;28312;43.460;11.810;2022-09-09T13:25:57;1.27;;;0.57;;
42134;SDS011;28312;43.460;11.810;2022-09-09T13:30:19;3.28;;;0.57;;
42134;SDS011;28312;43.460;11.810;2022-09-09T13:34:29;0.43;;;0.32;;
42134;SDS011;28312;43.460;11.810;2022-09-09T13:38:37;0.70;;;0.30;;
42134;SDS011;28312;43.460;11.810;2022-09-09T13:42:41;1.58;;;0.40;;
42134;SDS011;28312;43.460;11.810;2022-09-09T13:46:59;1.90;;;0.38;;
42134;SDS011;28312;43.460;11.810;2022-09-09T13:51:03;2.17;;;0.50;;
42134;SDS011;28312;43.460;11.810;2022-09-09T13:55:08;1.40;;;0.32;;
42134;SDS011;28312;43.460;11.810;2022-09-09T13:59:13;2.20;;;0.40;;
42134;SDS011;28312;43.460;11.810;2022-09-09T14:03:17;1.35;;;0.73;;
42134;SDS011;28312;43.460;11.810;2022-09-09T14:07:23;0.60;;;0.30;;
42134;SDS011;28312;43.460;11.810;2022-09-09T14:11:29;0.77;;;0.35;;
42134;SDS011;28312;43.460;11.810;2022-09-09T14:19:36;2.30;;;0.60;;
42134;SDS011;28312;43.460;11.810;2022-09-09T14:23:40;1.55;;;0.50;;
42134;SDS011;28312;43.460;11.810;2022-09-09T14:27:44;2.15;;;0.57;;
42134;SDS011;28312;43.460;11.810;2022-09-09T14:31:48;0.80;;;0.40;;
42134;SDS011;28312;43.460;11.810;2022-09-09T14:35:56;1.75;;;0.52;;
42134;SDS011;28312;43.460;11.810;2022-09-09T14:40:00;1.65;;;0.40;;
42134;SDS011;28312;43.460;11.810;2022-09-09T14:44:04;1.10;;;0.52;;
42134;SDS011;28312;43.460;11.810;2022-09-09T14:48:07;1.33;;;0.47;;
42134;SDS011;28312;43.460;11.810;2022-09-09T14:52:11;1.23;;;0.40;;
42134;SDS011;28312;43.460;11.810;2022-09-09T14:56:16;0.68;;;0.30;;
42134;SDS011;28312;43.460;11.810;2022-09-09T15:00:20;0.70;;;0.52;;
42134;SDS011;28312;43.460;11.810;2022-09-09T15:04:25;1.90;;;0.67;;
42134;SDS011;28312;43.460;11.810;2022-09-09T15:08:31;1.50;;;0.60;;
42134;SDS011;28312;43.460;11.810;2022-09-09T15:12:37;1.33;;;0.60;;
42134;SDS011;28312;43.460;11.810;2022-09-09T15:16:41;1.10;;;0.40;;
42134;SDS011;28312;43.460;11.810;2022-09-09T15:20:45;1.23;;;0.50;;
42134;SDS011;28312;43.460;11.810;2022-09-09T15:28:54;2.70;;;0.40;;
42134;SDS011;28312;43.460;11.810;2022-09-09T15:32:57;2.17;;;0.47;;
42134;SDS011;28312;43.460;11.810;2022-09-09T15:37:02;1.02;;;0.35;;
42134;SDS011;28312;43.460;11.810;2022-09-09T15:41:06;0.40;;;0.30;;
42134;SDS011;28312;43.460;11.810;2022-09-09T15:45:10;1.63;;;0.47;;
42134;SDS011;28312;43.460;11.810;2022-09-09T15:53:22;3.53;;;0.28;;
42134;SDS011;28312;43.460;11.810;2022-09-09T15:57:26;1.38;;;0.60;;
42134;SDS011;28312;43.460;11.810;2022-09-09T16:01:30;1.25;;;0.50;;
42134;SDS011;28312;43.460;11.810;2022-09-09T16:05:35;0.28;;;0.13;;
42134;SDS011;28312;43.460;11.810;2022-09-09T16:09:39;2.15;;;0.55;;
42134;SDS011;28312;43.460;11.810;2022-09-09T16:13:44;1.92;;;0.43;;
42134;SDS011;28312;43.460;11.810;2022-09-09T16:17:55;0.30;;;0.20;;
42134;SDS011;28312;43.460;11.810;2022-09-09T16:21:58;1.85;;;0.77;;
42134;SDS011;28312;43.460;11.810;2022-09-09T16:26:02;0.30;;;0.10;;
42134;SDS011;28312;43.460;11.810;2022-09-09T16:30:07;0.30;;;0.27;;
42134;SDS011;28312;43.460;11.810;2022-09-09T16:34:11;4.15;;;0.35;;
42134;SDS011;28312;43.460;11.810;2022-09-09T16:38:15;1.10;;;0.38;;
42134;SDS011;28312;43.460;11.810;2022-09-09T16:42:19;1.00;;;0.22;;
42134;SDS011;28312;43.460;11.810;2022-09-09T16:46:23;0.38;;;0.20;;
42134;SDS011;28312;43.460;11.810;2022-09-09T16:50:27;1.63;;;0.20;;
42134;SDS011;28312;43.460;11.810;2022-09-09T16:54:31;0.15;;;0.13;;
42134;SDS011;28312;43.460;11.810;2022-09-09T16:58:35;1.45;;;0.30;;
42134;SDS011;28312;43.460;11.810;2022-09-09T17:02:39;1.42;;;0.70;;
42134;SDS011;28312;43.460;11.810;2022-09-09T17:06:45;0.50;;;0.20;;
42134;SDS011;28312;43.460;11.810;2022-09-09T17:10:51;2.58;;;0.28;;
42134;SDS011;28312;43.460;11.810;2022-09-09T17:14:56;0.60;;;0.40;;
42134;SDS011;28312;43.460;11.810;2022-09-09T17:19:01;2.10;;;0.40;;
42134;SDS011;28312;43.460;11.810;2022-09-09T17:23:06;1.08;;;0.38;;
42134;SDS011;28312;43.460;11.810;2022-09-09T17:27:10;1.73;;;0.32;;
42134;SDS011;28312;43.460;11.810;2022-09-09T17:31:16;1.67;;;0.43;;
42134;SDS011;28312;43.460;11.810;2022-09-09T17:35:20;2.00;;;0.40;;
42134;SDS011;28312;43.460;11.810;2022-09-09T17:39:23;3.25;;;1.10;;
42134;SDS011;28312;43.460;11.810;2022-09-09T17:43:27;2.00;;;0.80;;
42134;SDS011;28312;43.460;11.810;2022-09-09T17:47:31;2.50;;;0.52;;
42134;SDS011;28312;43.460;11.810;2022-09-09T17:51:36;1.73;;;0.70;;
42134;SDS011;28312;43.460;11.810;2022-09-09T17:55:40;2.88;;;0.80;;
42134;SDS011;28312;43.460;11.810;2022-09-09T17:59:44;1.42;;;0.60;;
42134;SDS011;28312;43.460;11.810;2022-09-09T18:03:48;1.50;;;0.75;;
42134;SDS011;28312;43.460;11.810;2022-09-09T18:07:52;0.60;;;0.25;;
42134;SDS011;28312;43.460;11.810;2022-09-09T18:11:56;1.40;;;0.75;;
42134;SDS011;28312;43.460;11.810;2022-09-09T18:16:00;1.75;;;0.45;;
42134;SDS011;28312;43.460;11.810;2022-09-09T18:20:05;1.15;;;0.60;;
42134;SDS011;28312;43.460;11.810;2022-09-09T18:24:09;1.60;;;0.60;;
42134;SDS011;28312;43.460;11.810;2022-09-09T18:28:13;1.17;;;0.50;;
42134;SDS011;28312;43.460;11.810;2022-09-09T18:32:16;1.83;;;0.60;;
42134;SDS011;28312;43.460;11.810;2022-09-09T18:36:25;1.63;;;0.47;;
42134;SDS011;28312;43.460;11.810;2022-09-09T18:40:30;1.00;;;0.40;;
42134;SDS011;28312;43.460;11.810;2022-09-09T18:44:34;1.20;;;0.73;;
42134;SDS011;28312;43.460;11.810;2022-09-09T18:48:38;1.02;;;0.73;;
42134;SDS011;28312;43.460;11.810;2022-09-09T18:52:41;0.95;;;0.60;;
42134;SDS011;28312;43.460;11.810;2022-09-09T18:56:45;0.45;;;0.30;;
42134;SDS011;28312;43.460;11.810;2022-09-09T19:00:49;0.98;;;0.47;;
42134;SDS011;28312;43.460;11.810;2022-09-09T19:04:53;4.00;;;0.90;;
42134;SDS011;28312;43.460;11.810;2022-09-09T19:08:57;1.17;;;0.50;;
42134;SDS011;28312;43.460;11.810;2022-09-09T19:13:06;1.95;;;0.45;;
42134;SDS011;28312;43.460;11.810;2022-09-09T19:17:13;1.80;;;0.60;;
42134;SDS011;28312;43.460;11.810;2022-09-09T19:21:19;0.43;;;0.30;;
42134;SDS011;28312;43.460;11.810;2022-09-09T19:25:24;0.45;;;0.30;;
42134;SDS011;28312;43.460;11.810;2022-09-09T19:29:29;1.27;;;0.45;;
42134;SDS011;28312;43.460;11.810;2022-09-09T19:33:34;0.93;;;0.30;;
42134;SDS011;28312;43.460;11.810;2022-09-09T19:37:38;1.33;;;0.35;;
42134;SDS011;28312;43.460;11.810;2022-09-09T19:41:42;0.95;;;0.50;;
42134;SDS011;28312;43.460;11.810;2022-09-09T19:45:56;3.15;;;1.10;;
42134;SDS011;28312;43.460;11.810;2022-09-09T19:50:00;1.08;;;0.60;;
42134;SDS011;28312;43.460;11.810;2022-09-09T19:54:10;0.85;;;0.60;;
42134;SDS011;28312;43.460;11.810;2022-09-09T19:58:15;2.70;;;0.70;;
42134;SDS011;28312;43.460;11.810;2022-09-09T20:02:19;0.82;;;0.40;;
42134;SDS011;28312;43.460;11.810;2022-09-09T20:06:26;5.00;;;0.40;;
42134;SDS011;28312;43.460;11.810;2022-09-09T20:10:30;1.83;;;0.70;;
42134;SDS011;28312;43.460;11.810;2022-09-09T20:14:34;1.27;;;0.30;;
42134;SDS011;28312;43.460;11.810;2022-09-09T20:18:46;0.60;;;0.30;;
42134;SDS011;28312;43.460;11.810;2022-09-09T20:22:52;1.27;;;0.70;;
42134;SDS011;28312;43.460;11.810;2022-09-09T20:26:55;0.60;;;0.40;;
42134;SDS011;28312;43.460;11.810;2022-09-09T20:31:04;0.40;;;0.22;;
42134;SDS011;28312;43.460;11.810;2022-09-09T20:35:08;1.00;;;0.50;;
42134;SDS011;28312;43.460;11.810;2022-09-09T20:39:16;1.13;;;0.20;;
42134;SDS011;28312;43.460;11.810;2022-09-09T20:43:21;2.10;;;0.57;;
42134;SDS011;28312;43.460;11.810;2022-09-09T20:47:25;2.35;;;0.75;;
42134;SDS011;28312;43.460;11.810;2022-09-09T20:51:29;0.75;;;0.40;;
42134;SDS011;28312;43.460;11.810;2022-09-09T20:55:34;1.40;;;0.77;;
42134;SDS011;28312;43.460;11.810;2022-09-09T20:59:38;0.85;;;0.40;;
42134;SDS011;28312;43.460;11.810;2022-09-09T21:04:00;2.08;;;0.82;;
42134;SDS011;28312;43.460;11.810;2022-09-09T21:08:04;2.63;;;0.38;;
42134;SDS011;28312;43.460;11.810;2022-09-09T21:12:08;0.77;;;0.50;;
42134;SDS011;28312;43.460;11.810;2022-09-09T21:16:14;1.73;;;0.50;;
42134;SDS011;28312;43.460;11.810;2022-09-09T21:20:24;5.05;;;0.90;;
42134;SDS011;28312;43.460;11.810;2022-09-09T21:24:28;2.22;;;0.80;;
42134;SDS011;28312;43.460;11.810;2022-09-09T21:28:32;2.17;;;0.50;;
42134;SDS011;28312;43.460;11.810;2022-09-09T21:32:37;0.60;;;0.40;;
42134;SDS011;28312;43.460;11.810;2022-09-09T21:36:40;2.70;;;0.85;;
42134;SDS011;28312;43.460;11.810;2022-09-09T21:40:45;2.75;;;0.90;;
42134;SDS011;28312;43.460;11.810;2022-09-09T21:44:52;2.42;;;0.85;;
42134;SDS011;28312;43.460;11.810;2022-09-09T21:48:57;3.53;;;0.63;;
42134;SDS011;28312;43.460;11.810;2022-09-09T21:53:01;0.50;;;0.25;;
42134;SDS011;28312;43.460;11.810;2022-09-09T21:57:05;1.92;;;0.70;;
42134;SDS011;28312;43.460;11.810;2022-09-09T22:01:09;3.47;;;0.80;;
42134;SDS011;28312;43.460;11.810;2022-09-09T22:05:22;0.73;;;0.38;;
42134;SDS011;28312;43.460;11.810;2022-09-09T22:09:27;2.28;;;0.68;;
42134;SDS011;28312;43.460;11.810;2022-09-09T22:13:33;1.20;;;0.30;;
42134;SDS011;28312;43.460;11.810;2022-09-09T22:17:38;1.30;;;0.77;;
42134;SDS011;28312;43.460;11.810;2022-09-09T22:21:44;2.60;;;0.50;;
42134;SDS011;28312;43.460;11.810;2022-09-09T22:25:48;2.35;;;0.75;;
42134;SDS011;28312;43.460;11.810;2022-09-09T22:29:52;2.08;;;0.80;;
42134;SDS011;28312;43.460;11.810;2022-09-09T22:33:56;4.30;;;0.80;;
42134;SDS011;28312;43.460;11.810;2022-09-09T22:38:00;1.27;;;0.85;;
42134;SDS011;28312;43.460;11.810;2022-09-09T22:42:04;1.75;;;0.65;;
42134;SDS011;28312;43.460;11.810;2022-09-09T22:46:09;2.53;;;0.85;;
42134;SDS011;28312;43.460;11.810;2022-09-09T22:50:13;3.03;;;0.98;;
42134;SDS011;28312;43.460;11.810;2022-09-09T22:54:16;1.92;;;0.80;;
42134;SDS011;28312;43.460;11.810;2022-09-09T22:58:23;1.45;;;0.80;;
42134;SDS011;28312;43.460;11.810;2022-09-09T23:02:26;2.45;;;0.90;;
42134;SDS011;28312;43.460;11.810;2022-09-09T23:06:30;4.72;;;0.90;;
42134;SDS011;28312;43.460;11.810;2022-09-09T23:10:38;1.65;;;0.63;;
42134;SDS011;28312;43.460;11.810;2022-09-09T23:14:44;0.82;;;0.40;;
42134;SDS011;28312;43.460;11.810;2022-09-09T23:18:53;2.70;;;0.82;;
42134;SDS011;28312;43.460;11.810;2022-09-09T23:23:00;1.02;;;0.47;;
42134;SDS011;28312;43.460;11.810;2022-09-09T23:27:04;1.40;;;0.70;;
42134;SDS011;28312;43.460;11.810;2022-09-09T23:31:13;2.95;;;0.57;;
42134;SDS011;28312;43.460;11.810;2022-09-09T23:35:17;3.42;;;0.73;;
42134;SDS011;28312;43.460;11.810;2022-09-09T23:39:21;1.27;;;0.52;;
42134;SDS011;28312;43.460;11.810;2022-09-09T23:43:25;1.55;;;0.40;;
42134;SDS011;28312;43.460;11.810;2022-09-09T23:47:29;0.75;;;0.50;;
42134;SDS011;28312;43.460;11.810;2022-09-09T23:51:33;1.35;;;0.60;;
42134;SDS011;28312;43.460;11.810;2022-09-09T23:55:37;0.55;;;0.45;;
42134;SDS011;28312;43.460;11.810;2022-09-09T23:59:41;2.05;;;0.85;;
